Terminal Aerodrome Forecast
Issued by NWS

Current Version | Previous Version | Graphics & Text | Print | Product List | Glossary On
Versions: 1 2 3 4 5 6 7 8 9 10 11 12 13 14 15 16 17
000
FTUS41 KILN 280530
TAFLCK
TAF
KLCK 280530Z 2806/2906 VRB03KT P6SM -SHRA OVC050
      TEMPO 2806/2810 5SM -SHRA BR OVC025
     FM281000 32005KT 5SM BR VCSH OVC015
     FM281500 36009KT P6SM OVC012
     FM290100 01008KT P6SM OVC025=

USA.gov is the U.S. government's official web portal to all federal, state and local government web resources and services.